createdAt,value
2023-04-10T04:01:45.576Z,3.50
2023-04-10T04:04:30.388Z,3.47
2023-04-10T04:07:15.237Z,3.49
2023-04-10T04:10:00.188Z,3.33
2023-04-10T04:12:45.043Z,3.23
2023-04-10T04:15:29.881Z,3.08
2023-04-10T04:18:14.922Z,3.31
2023-04-10T04:20:59.902Z,3.45
2023-04-10T04:23:44.746Z,3.86
2023-04-10T04:26:29.721Z,4.09
2023-04-10T04:29:14.723Z,4.06
2023-04-10T04:31:59.673Z,4.02
2023-04-10T04:34:44.398Z,3.79
2023-04-10T04:37:29.271Z,3.34
2023-04-10T04:40:14.134Z,3.50
2023-04-10T04:42:59.018Z,3.51
2023-04-10T04:45:43.912Z,3.60
2023-04-10T04:48:28.883Z,3.63
2023-04-10T04:51:13.786Z,3.33
2023-04-10T04:53:58.523Z,3.37
2023-04-10T04:56:43.436Z,2.91
2023-04-10T04:59:28.178Z,3.11
2023-04-10T05:02:13.079Z,3.18
2023-04-10T05:04:57.889Z,3.15
2023-04-10T05:07:42.627Z,3.15
2023-04-10T05:10:27.470Z,3.50
2023-04-10T05:13:12.325Z,3.44
2023-04-10T05:15:57.203Z,3.63
2023-04-10T05:18:42.287Z,3.68
2023-04-10T05:21:27.095Z,3.89
2023-04-10T05:24:11.955Z,3.66
2023-04-10T05:26:56.975Z,4.20
2023-04-10T05:29:41.757Z,4.08
2023-04-10T05:32:26.757Z,3.98
2023-04-10T05:35:11.562Z,4.33
2023-04-10T05:37:56.565Z,4.06
2023-04-10T05:40:41.439Z,4.05
2023-04-10T05:43:26.308Z,3.72
2023-04-10T05:46:11.340Z,4.02
2023-04-10T05:48:56.203Z,4.43
2023-04-10T05:51:40.980Z,4.90
2023-04-10T05:54:25.877Z,4.73
2023-04-10T05:57:10.902Z,4.65
2023-04-10T05:59:55.715Z,4.80
2023-04-10T06:02:40.916Z,4.64
2023-04-10T06:05:25.719Z,4.83
2023-04-10T06:08:10.457Z,4.95
2023-04-10T06:10:55.486Z,5.13
2023-04-10T06:13:40.316Z,5.37
2023-04-10T06:16:25.158Z,5.51
2023-04-10T06:19:10.027Z,5.59
2023-04-10T06:21:55.211Z,5.78
2023-04-10T06:24:40.235Z,6.10
2023-04-10T06:27:25.069Z,6.36
2023-04-10T06:30:10.017Z,6.58
2023-04-10T06:32:54.999Z,6.89
2023-04-10T06:35:39.926Z,7.16
2023-04-10T06:38:24.694Z,7.41
2023-04-10T06:41:09.657Z,7.62
2023-04-10T06:43:54.584Z,7.70
2023-04-10T06:46:39.512Z,7.87
2023-04-10T06:49:24.291Z,7.83
2023-04-10T06:52:09.135Z,7.97
2023-04-10T06:54:53.913Z,8.26
2023-04-10T06:57:38.691Z,8.20
2023-04-10T07:00:23.678Z,8.36
2023-04-10T07:03:08.545Z,8.58
2023-04-10T07:05:53.562Z,8.23
2023-04-10T07:08:38.353Z,8.48
2023-04-10T07:11:23.308Z,8.35
2023-04-10T07:14:08.117Z,8.12
2023-04-10T07:16:53.002Z,8.63
2023-04-10T07:19:37.682Z,8.53
2023-04-10T07:22:22.655Z,8.73
2023-04-10T07:25:07.618Z,8.61
2023-04-10T07:27:52.551Z,9.01
2023-04-10T07:30:37.593Z,8.91
2023-04-10T07:33:22.508Z,8.57
2023-04-10T07:36:07.287Z,8.78
2023-04-10T07:38:52.169Z,9.28
2023-04-10T07:41:36.988Z,9.52
2023-04-10T07:44:21.846Z,8.80
2023-04-10T07:47:06.626Z,8.73
2023-04-10T07:49:51.546Z,8.74
2023-04-10T07:52:36.406Z,8.71
2023-04-10T07:55:21.349Z,8.56
2023-04-10T07:58:06.152Z,9.31
2023-04-10T08:00:51.068Z,9.14
2023-04-10T08:03:36.061Z,8.79
2023-04-10T08:06:20.844Z,9.26
2023-04-10T08:09:05.734Z,8.65
2023-04-10T08:11:50.666Z,8.65
2023-04-10T08:14:35.625Z,8.70
2023-04-10T08:17:20.328Z,9.32
2023-04-10T08:20:05.330Z,9.27
2023-04-10T08:22:50.103Z,10.04
2023-04-10T08:25:35.068Z,10.50
2023-04-10T08:28:19.861Z,10.73
2023-04-10T08:31:04.853Z,10.53
2023-04-10T08:33:49.722Z,10.73
2023-04-10T08:36:34.716Z,11.03
2023-04-10T08:39:19.687Z,10.86
2023-04-10T08:42:04.536Z,10.59
2023-04-10T08:44:49.535Z,10.63
2023-04-10T08:47:34.336Z,10.16
2023-04-10T08:50:19.359Z,10.67
2023-04-10T08:53:04.027Z,10.98
2023-04-10T08:55:48.951Z,11.72
2023-04-10T08:58:33.743Z,11.76
2023-04-10T09:01:18.587Z,11.06
2023-04-10T09:04:03.642Z,10.16
2023-04-10T09:06:48.633Z,10.73
2023-04-10T09:09:33.394Z,11.22
2023-04-10T09:12:18.227Z,10.81
2023-04-10T09:15:03.187Z,11.34
2023-04-10T09:17:47.979Z,11.07
2023-04-10T09:20:32.932Z,11.59
2023-04-10T09:23:17.745Z,11.20
2023-04-10T09:26:02.530Z,10.78
2023-04-10T09:28:47.301Z,10.75
2023-04-10T09:31:32.277Z,11.17
2023-04-10T09:34:17.179Z,11.93
2023-04-10T09:37:02.028Z,11.58
2023-04-10T09:39:47.122Z,10.61
2023-04-10T09:42:31.908Z,11.35
2023-04-10T09:45:16.850Z,11.15
2023-04-10T09:48:01.663Z,11.69
2023-04-10T09:50:46.392Z,11.56
2023-04-10T09:53:31.112Z,12.08
2023-04-10T09:56:16.030Z,12.22
2023-04-10T09:59:00.944Z,12.03
2023-04-10T10:01:45.839Z,12.47
2023-04-10T10:04:30.774Z,12.23
2023-04-10T10:07:15.591Z,12.12
2023-04-10T10:10:01.544Z,12.49
2023-04-10T10:12:46.468Z,11.89
2023-04-10T10:15:31.524Z,11.70
2023-04-10T10:18:16.410Z,12.78
2023-04-10T10:21:01.339Z,12.38
2023-04-10T10:23:46.139Z,11.89
2023-04-10T10:26:30.970Z,12.30
2023-04-10T10:29:15.954Z,11.87
2023-04-10T10:32:00.771Z,12.23
2023-04-10T10:34:45.634Z,12.53
2023-04-10T10:37:30.629Z,13.11
2023-04-10T10:40:15.406Z,13.00
2023-04-10T10:43:00.298Z,12.62
2023-04-10T10:45:45.264Z,12.46
2023-04-10T10:48:30.057Z,13.41
2023-04-10T10:51:14.996Z,14.12
2023-04-10T10:54:00.071Z,13.38
2023-04-10T10:56:44.922Z,13.87
2023-04-10T10:59:30.114Z,14.55
2023-04-10T11:02:14.887Z,13.77
2023-04-10T11:04:59.682Z,13.32
2023-04-10T11:07:44.583Z,14.02
2023-04-10T11:10:30.235Z,14.50
2023-04-10T11:13:15.858Z,13.38
2023-04-10T11:16:00.673Z,13.68
2023-04-10T11:18:45.584Z,13.46
2023-04-10T11:21:30.351Z,13.88
2023-04-10T11:24:15.158Z,14.20
2023-04-10T11:27:00.139Z,13.42
2023-04-10T11:29:45.030Z,13.78
2023-04-10T11:32:29.905Z,13.93
2023-04-10T11:35:14.777Z,14.21
2023-04-10T11:37:59.877Z,14.67
2023-04-10T11:40:44.612Z,14.77
2023-04-10T11:43:29.612Z,14.25
2023-04-10T11:46:14.463Z,14.27
2023-04-10T11:48:59.353Z,14.34
2023-04-10T11:51:44.199Z,14.10
2023-04-10T11:54:29.153Z,14.44
2023-04-10T11:57:14.126Z,14.28
2023-04-10T11:59:58.994Z,14.78
2023-04-10T12:02:44.008Z,14.62
2023-04-10T12:05:28.570Z,14.85
2023-04-10T12:08:13.441Z,14.87
2023-04-10T12:10:58.261Z,15.12
2023-04-10T12:13:43.249Z,15.38
2023-04-10T12:16:28.035Z,15.47
2023-04-10T12:19:13.034Z,15.57
2023-04-10T12:21:57.907Z,15.26
2023-04-10T12:24:42.792Z,15.62
2023-04-10T12:27:27.823Z,15.43
2023-04-10T12:30:12.859Z,15.44
2023-04-10T12:32:57.997Z,14.93
2023-04-10T12:35:42.755Z,15.19
2023-04-10T12:38:27.645Z,15.43
2023-04-10T12:41:12.429Z,15.50
2023-04-10T12:43:57.303Z,15.71
2023-04-10T12:46:42.225Z,15.79
2023-04-10T12:49:26.837Z,15.80
2023-04-10T12:52:11.841Z,16.33
2023-04-10T12:54:56.712Z,16.64
2023-04-10T12:57:41.702Z,16.65
2023-04-10T13:00:26.555Z,16.33
2023-04-10T13:03:11.572Z,16.55
2023-04-10T13:05:56.324Z,16.16
2023-04-10T13:08:41.244Z,15.88
2023-04-10T13:11:26.140Z,15.33
2023-04-10T13:14:11.017Z,15.55
2023-04-10T13:16:55.920Z,16.57
2023-04-10T13:19:40.775Z,16.12
2023-04-10T13:22:25.568Z,16.49
2023-04-10T13:25:10.397Z,15.79
2023-04-10T13:27:55.307Z,16.53
2023-04-10T13:30:40.121Z,16.36
2023-04-10T13:33:24.905Z,15.82
2023-04-10T13:36:09.807Z,16.58
2023-04-10T13:38:54.779Z,16.60
2023-04-10T13:41:39.530Z,15.97
2023-04-10T13:44:24.437Z,15.99
2023-04-10T13:47:09.420Z,15.74
2023-04-10T13:49:54.152Z,15.68
2023-04-10T13:52:38.969Z,16.15
2023-04-10T13:55:23.864Z,15.63
2023-04-10T13:58:08.837Z,15.62
2023-04-10T14:00:53.724Z,16.28
2023-04-10T14:03:38.469Z,15.90
2023-04-10T14:06:23.262Z,16.45
2023-04-10T14:09:08.100Z,17.73
2023-04-10T14:11:53.036Z,17.62
2023-04-10T14:14:37.794Z,17.20
2023-04-10T14:17:22.766Z,17.01
2023-04-10T14:20:07.562Z,17.46
2023-04-10T14:22:52.445Z,18.18
2023-04-10T14:25:37.240Z,17.77
2023-04-10T14:28:22.020Z,17.33
2023-04-10T14:31:06.926Z,17.19
2023-04-10T14:33:51.948Z,16.73
2023-04-10T14:36:36.794Z,16.97
2023-04-10T14:39:21.711Z,16.32
2023-04-10T14:42:06.702Z,16.08
2023-04-10T14:44:51.467Z,16.21
2023-04-10T14:47:36.416Z,16.38
2023-04-10T14:50:21.112Z,16.25
2023-04-10T14:53:06.140Z,16.91
2023-04-10T14:55:50.875Z,16.21
2023-04-10T14:58:35.650Z,16.72
2023-04-10T15:01:20.675Z,17.02
2023-04-10T15:04:05.577Z,16.14
2023-04-10T15:06:50.507Z,16.07
2023-04-10T15:09:35.382Z,16.27
2023-04-10T15:12:20.308Z,16.60
2023-04-10T15:15:05.122Z,15.93
2023-04-10T15:17:50.042Z,15.82
2023-04-10T15:20:34.955Z,16.02
2023-04-10T15:23:19.919Z,15.26
2023-04-10T15:26:04.838Z,15.24
2023-04-10T15:28:49.709Z,15.82
2023-04-10T15:31:34.754Z,15.78
2023-04-10T15:34:19.644Z,15.21
2023-04-10T15:37:04.574Z,15.14
2023-04-10T15:39:49.474Z,15.18
2023-04-10T15:42:34.453Z,15.06
2023-04-10T15:45:19.294Z,15.36
2023-04-10T15:48:04.213Z,14.96
2023-04-10T15:50:49.101Z,15.26
2023-04-10T15:53:33.986Z,15.44
2023-04-10T15:56:18.942Z,15.13
2023-04-10T15:59:03.697Z,15.21
2023-04-10T16:01:48.817Z,15.50
2023-04-10T16:04:33.766Z,14.91
2023-04-10T16:07:18.682Z,14.79
2023-04-10T16:10:03.547Z,14.19
2023-04-10T16:12:48.355Z,14.56
2023-04-10T16:15:33.351Z,15.17
2023-04-10T16:18:18.187Z,15.10
2023-04-10T16:21:03.214Z,15.07
2023-04-10T16:23:48.102Z,15.51
2023-04-10T16:26:33.087Z,15.50
2023-04-10T16:29:17.887Z,15.35
2023-04-10T16:32:02.799Z,14.98
2023-04-10T16:34:47.702Z,14.29
2023-04-10T16:37:32.523Z,14.30
2023-04-10T16:40:17.496Z,14.60
2023-04-10T16:43:02.403Z,14.37
2023-04-10T16:45:47.213Z,14.08
2023-04-10T16:48:33.581Z,13.95
2023-04-10T16:51:19.643Z,14.39
2023-04-10T16:54:04.558Z,14.56
2023-04-10T16:56:49.372Z,15.00
2023-04-10T16:59:34.496Z,15.03
2023-04-10T17:02:19.340Z,15.33
2023-04-10T17:05:04.281Z,15.62
2023-04-10T17:07:49.047Z,15.72
2023-04-10T17:10:34.015Z,15.59
2023-04-10T17:13:20.296Z,15.46
2023-04-10T17:16:05.129Z,15.01
2023-04-10T17:18:50.170Z,15.16
2023-04-10T17:21:35.017Z,15.26
2023-04-10T17:24:20.126Z,14.96
2023-04-10T17:27:04.964Z,14.15
2023-04-10T17:29:49.959Z,13.95
2023-04-10T17:32:34.770Z,13.75
2023-04-10T17:35:19.629Z,13.94
2023-04-10T17:38:04.574Z,13.83
2023-04-10T17:40:49.374Z,13.93
2023-04-10T17:43:34.276Z,14.42
2023-04-10T17:46:19.061Z,14.28
2023-04-10T17:49:04.139Z,14.57
2023-04-10T17:51:48.878Z,14.57
2023-04-10T17:54:33.606Z,14.63
2023-04-10T17:57:18.476Z,14.62
2023-04-10T18:00:03.308Z,14.58
2023-04-10T18:02:48.224Z,14.52
2023-04-10T18:05:33.587Z,14.20
2023-04-10T18:08:18.464Z,14.19
2023-04-10T18:11:03.407Z,14.22
2023-04-10T18:13:48.284Z,14.00
2023-04-10T18:16:33.014Z,13.94
2023-04-10T18:19:18.003Z,13.86
2023-04-10T18:22:02.851Z,13.85
2023-04-10T18:24:47.725Z,13.79
2023-04-10T18:27:32.584Z,12.91
2023-04-10T18:30:17.486Z,13.27
2023-04-10T18:33:05.121Z,13.33
2023-04-10T18:35:50.154Z,13.50
2023-04-10T18:38:34.963Z,13.26
2023-04-10T18:41:19.704Z,13.04
2023-04-10T18:44:05.753Z,13.18
2023-04-10T18:46:57.629Z,12.77
2023-04-10T18:49:48.387Z,12.76
2023-04-10T18:52:33.284Z,12.98
2023-04-10T18:55:18.187Z,12.94
2023-04-10T18:58:03.234Z,12.95
2023-04-10T19:00:47.994Z,12.64
2023-04-10T19:03:33.067Z,12.66
2023-04-10T19:06:17.873Z,12.60
2023-04-10T19:09:02.849Z,12.64
2023-04-10T19:11:47.668Z,12.79
2023-04-10T19:14:32.588Z,12.80
2023-04-10T19:17:17.437Z,12.87
2023-04-10T19:20:02.377Z,12.81
2023-04-10T19:22:47.590Z,12.85
2023-04-10T19:25:32.405Z,12.79
2023-04-10T19:28:17.429Z,12.79
2023-04-10T19:31:02.387Z,12.84
2023-04-10T19:33:47.291Z,12.92
2023-04-10T19:36:32.182Z,12.92
2023-04-10T19:39:17.043Z,12.84
2023-04-10T19:42:02.112Z,12.27
2023-04-10T19:44:46.933Z,12.25
2023-04-10T19:47:32.134Z,12.33
2023-04-10T19:50:16.993Z,12.24
2023-04-10T19:53:01.945Z,12.34
2023-04-10T19:55:46.694Z,12.15
2023-04-10T19:58:40.570Z,12.53
2023-04-10T20:01:26.229Z,12.81
2023-04-10T20:04:11.119Z,12.93
2023-04-10T20:06:55.789Z,12.88
2023-04-10T20:09:40.803Z,13.09
2023-04-10T20:12:25.735Z,13.04
2023-04-10T20:15:10.684Z,13.28
2023-04-10T20:17:55.598Z,13.29
2023-04-10T20:20:40.335Z,13.25
2023-04-10T20:23:25.204Z,13.17
2023-04-10T20:26:10.109Z,12.92
2023-04-10T20:28:55.196Z,12.61
2023-04-10T20:31:40.216Z,12.59
2023-04-10T20:34:25.132Z,12.19
2023-04-10T20:37:09.926Z,12.74
2023-04-10T20:39:55.009Z,12.55
2023-04-10T20:42:39.768Z,12.40
2023-04-10T20:45:24.662Z,12.36
2023-04-10T20:48:09.639Z,12.43
2023-04-10T20:50:54.496Z,12.18
2023-04-10T20:53:39.366Z,12.92
2023-04-10T20:56:32.819Z,12.69
2023-04-10T20:59:25.461Z,13.06
